sensor_id;sensor_type;location;lat;lon;timestamp;P1;durP1;ratioP1;P2;durP2;ratioP2
77204;SDS011;66188;46.626;18.866;2022-12-19T00:02:23;23.95;;;15.52;;
77204;SDS011;66188;46.626;18.866;2022-12-19T00:04:48;26.25;;;15.43;;
77204;SDS011;66188;46.626;18.866;2022-12-19T00:07:14;22.52;;;14.57;;
77204;SDS011;66188;46.626;18.866;2022-12-19T00:09:39;23.13;;;15.23;;
77204;SDS011;66188;46.626;18.866;2022-12-19T00:12:05;21.88;;;14.98;;
77204;SDS011;66188;46.626;18.866;2022-12-19T00:14:30;21.30;;;14.98;;
77204;SDS011;66188;46.626;18.866;2022-12-19T00:16:56;21.33;;;14.15;;
77204;SDS011;66188;46.626;18.866;2022-12-19T00:19:21;22.25;;;13.85;;
77204;SDS011;66188;46.626;18.866;2022-12-19T00:21:46;22.48;;;15.23;;
77204;SDS011;66188;46.626;18.866;2022-12-19T00:24:12;22.67;;;14.80;;
77204;SDS011;66188;46.626;18.866;2022-12-19T00:26:38;20.38;;;14.50;;
77204;SDS011;66188;46.626;18.866;2022-12-19T00:29:06;21.40;;;14.88;;
77204;SDS011;66188;46.626;18.866;2022-12-19T00:31:32;21.15;;;14.88;;
77204;SDS011;66188;46.626;18.866;2022-12-19T00:33:59;20.38;;;13.90;;
77204;SDS011;66188;46.626;18.866;2022-12-19T00:36:26;21.08;;;13.77;;
77204;SDS011;66188;46.626;18.866;2022-12-19T00:38:54;22.17;;;15.20;;
77204;SDS011;66188;46.626;18.866;2022-12-19T00:41:24;19.15;;;13.38;;
77204;SDS011;66188;46.626;18.866;2022-12-19T00:43:54;20.55;;;13.20;;
77204;SDS011;66188;46.626;18.866;2022-12-19T00:46:24;18.52;;;13.00;;
77204;SDS011;66188;46.626;18.866;2022-12-19T00:48:51;18.55;;;12.77;;
77204;SDS011;66188;46.626;18.866;2022-12-19T00:51:18;21.73;;;14.52;;
77204;SDS011;66188;46.626;18.866;2022-12-19T00:53:45;18.83;;;12.40;;
77204;SDS011;66188;46.626;18.866;2022-12-19T00:56:13;20.65;;;13.68;;
77204;SDS011;66188;46.626;18.866;2022-12-19T00:58:41;19.10;;;13.35;;
77204;SDS011;66188;46.626;18.866;2022-12-19T01:01:07;19.13;;;13.18;;
77204;SDS011;66188;46.626;18.866;2022-12-19T01:03:36;20.20;;;13.43;;
77204;SDS011;66188;46.626;18.866;2022-12-19T01:06:02;19.67;;;13.43;;
77204;SDS011;66188;46.626;18.866;2022-12-19T01:08:28;18.25;;;13.07;;
77204;SDS011;66188;46.626;18.866;2022-12-19T01:10:53;18.85;;;13.50;;
77204;SDS011;66188;46.626;18.866;2022-12-19T01:13:20;20.20;;;13.45;;
77204;SDS011;66188;46.626;18.866;2022-12-19T01:15:47;18.70;;;13.50;;
77204;SDS011;66188;46.626;18.866;2022-12-19T01:18:12;17.95;;;12.82;;
77204;SDS011;66188;46.626;18.866;2022-12-19T01:20:39;19.25;;;13.52;;
77204;SDS011;66188;46.626;18.866;2022-12-19T01:23:06;19.85;;;13.25;;
77204;SDS011;66188;46.626;18.866;2022-12-19T01:25:36;18.15;;;12.60;;
77204;SDS011;66188;46.626;18.866;2022-12-19T01:28:02;17.67;;;11.88;;
77204;SDS011;66188;46.626;18.866;2022-12-19T01:30:28;18.40;;;12.15;;
77204;SDS011;66188;46.626;18.866;2022-12-19T01:32:54;16.58;;;11.52;;
77204;SDS011;66188;46.626;18.866;2022-12-19T01:35:20;16.23;;;11.95;;
77204;SDS011;66188;46.626;18.866;2022-12-19T01:37:46;17.08;;;11.80;;
77204;SDS011;66188;46.626;18.866;2022-12-19T01:40:12;19.00;;;12.23;;
77204;SDS011;66188;46.626;18.866;2022-12-19T01:42:37;15.80;;;11.05;;
77204;SDS011;66188;46.626;18.866;2022-12-19T01:45:04;17.17;;;11.50;;
77204;SDS011;66188;46.626;18.866;2022-12-19T01:47:55;17.20;;;12.00;;
77204;SDS011;66188;46.626;18.866;2022-12-19T01:50:31;15.98;;;11.50;;
77204;SDS011;66188;46.626;18.866;2022-12-19T01:53:01;17.88;;;10.93;;
77204;SDS011;66188;46.626;18.866;2022-12-19T01:55:29;18.20;;;11.70;;
77204;SDS011;66188;46.626;18.866;2022-12-19T01:57:55;14.98;;;10.90;;
77204;SDS011;66188;46.626;18.866;2022-12-19T02:00:21;16.85;;;11.43;;
77204;SDS011;66188;46.626;18.866;2022-12-19T02:02:57;15.52;;;10.95;;
77204;SDS011;66188;46.626;18.866;2022-12-19T02:05:31;14.77;;;10.60;;
77204;SDS011;66188;46.626;18.866;2022-12-19T02:07:57;16.67;;;11.38;;
77204;SDS011;66188;46.626;18.866;2022-12-19T02:10:24;15.52;;;11.23;;
77204;SDS011;66188;46.626;18.866;2022-12-19T02:12:49;17.05;;;11.13;;
77204;SDS011;66188;46.626;18.866;2022-12-19T02:15:15;14.80;;;10.50;;
77204;SDS011;66188;46.626;18.866;2022-12-19T02:17:49;16.52;;;11.10;;
77204;SDS011;66188;46.626;18.866;2022-12-19T02:20:23;14.20;;;10.75;;
77204;SDS011;66188;46.626;18.866;2022-12-19T02:25:50;13.93;;;10.10;;
77204;SDS011;66188;46.626;18.866;2022-12-19T02:36:52;15.07;;;10.10;;
77204;SDS011;66188;46.626;18.866;2022-12-19T02:39:38;15.23;;;9.73;;
77204;SDS011;66188;46.626;18.866;2022-12-19T02:42:10;14.02;;;9.88;;
77204;SDS011;66188;46.626;18.866;2022-12-19T02:44:40;15.32;;;9.70;;
77204;SDS011;66188;46.626;18.866;2022-12-19T02:47:09;14.57;;;10.63;;
77204;SDS011;66188;46.626;18.866;2022-12-19T02:49:35;14.20;;;10.48;;
77204;SDS011;66188;46.626;18.866;2022-12-19T02:54:57;13.95;;;9.77;;
77204;SDS011;66188;46.626;18.866;2022-12-19T02:57:27;13.70;;;9.75;;
77204;SDS011;66188;46.626;18.866;2022-12-19T03:00:03;14.85;;;9.77;;
77204;SDS011;66188;46.626;18.866;2022-12-19T03:12:59;14.18;;;9.98;;
77204;SDS011;66188;46.626;18.866;2022-12-19T03:15:28;14.35;;;9.23;;
77204;SDS011;66188;46.626;18.866;2022-12-19T03:17:56;13.75;;;9.77;;
77204;SDS011;66188;46.626;18.866;2022-12-19T03:20:43;13.73;;;9.80;;
77204;SDS011;66188;46.626;18.866;2022-12-19T03:23:13;13.88;;;9.35;;
77204;SDS011;66188;46.626;18.866;2022-12-19T03:25:40;12.25;;;9.50;;
77204;SDS011;66188;46.626;18.866;2022-12-19T03:28:15;14.45;;;9.65;;
77204;SDS011;66188;46.626;18.866;2022-12-19T03:30:45;12.13;;;8.75;;
77204;SDS011;66188;46.626;18.866;2022-12-19T03:33:11;12.32;;;9.07;;
77204;SDS011;66188;46.626;18.866;2022-12-19T03:35:40;10.60;;;8.38;;
77204;SDS011;66188;46.626;18.866;2022-12-19T03:38:07;13.57;;;9.48;;
77204;SDS011;66188;46.626;18.866;2022-12-19T03:40:36;12.75;;;8.90;;
77204;SDS011;66188;46.626;18.866;2022-12-19T03:43:07;13.13;;;9.35;;
77204;SDS011;66188;46.626;18.866;2022-12-19T03:48:19;12.63;;;9.00;;
77204;SDS011;66188;46.626;18.866;2022-12-19T03:59:08;12.82;;;9.15;;
77204;SDS011;66188;46.626;18.866;2022-12-19T04:01:41;11.43;;;8.57;;
77204;SDS011;66188;46.626;18.866;2022-12-19T04:04:08;12.30;;;8.73;;
77204;SDS011;66188;46.626;18.866;2022-12-19T04:06:36;14.15;;;8.77;;
77204;SDS011;66188;46.626;18.866;2022-12-19T04:09:04;11.43;;;8.52;;
77204;SDS011;66188;46.626;18.866;2022-12-19T04:11:33;11.07;;;8.25;;
77204;SDS011;66188;46.626;18.866;2022-12-19T04:14:08;12.07;;;9.05;;
77204;SDS011;66188;46.626;18.866;2022-12-19T04:19:50;12.63;;;8.43;;
77204;SDS011;66188;46.626;18.866;2022-12-19T04:22:27;11.52;;;8.80;;
77204;SDS011;66188;46.626;18.866;2022-12-19T04:24:54;10.75;;;8.60;;
77204;SDS011;66188;46.626;18.866;2022-12-19T04:27:21;12.07;;;8.32;;
77204;SDS011;66188;46.626;18.866;2022-12-19T04:29:48;11.48;;;8.52;;
77204;SDS011;66188;46.626;18.866;2022-12-19T04:32:18;11.93;;;8.68;;
77204;SDS011;66188;46.626;18.866;2022-12-19T04:34:45;11.23;;;8.40;;
77204;SDS011;66188;46.626;18.866;2022-12-19T04:37:10;10.88;;;7.85;;
77204;SDS011;66188;46.626;18.866;2022-12-19T04:39:36;11.73;;;8.75;;
77204;SDS011;66188;46.626;18.866;2022-12-19T04:42:01;11.10;;;8.60;;
77204;SDS011;66188;46.626;18.866;2022-12-19T04:44:27;12.10;;;9.38;;
77204;SDS011;66188;46.626;18.866;2022-12-19T04:46:52;12.05;;;8.50;;
77204;SDS011;66188;46.626;18.866;2022-12-19T04:49:18;11.57;;;8.68;;
77204;SDS011;66188;46.626;18.866;2022-12-19T04:51:43;11.48;;;8.30;;
77204;SDS011;66188;46.626;18.866;2022-12-19T04:54:09;12.40;;;8.73;;
77204;SDS011;66188;46.626;18.866;2022-12-19T04:56:34;10.77;;;8.48;;
77204;SDS011;66188;46.626;18.866;2022-12-19T04:59:00;12.00;;;8.52;;
77204;SDS011;66188;46.626;18.866;2022-12-19T05:01:25;11.63;;;9.13;;
77204;SDS011;66188;46.626;18.866;2022-12-19T05:03:51;13.65;;;8.57;;
77204;SDS011;66188;46.626;18.866;2022-12-19T05:06:17;11.18;;;8.07;;
77204;SDS011;66188;46.626;18.866;2022-12-19T05:08:43;13.18;;;9.18;;
77204;SDS011;66188;46.626;18.866;2022-12-19T05:11:10;12.32;;;8.45;;
77204;SDS011;66188;46.626;18.866;2022-12-19T05:13:37;11.20;;;8.38;;
77204;SDS011;66188;46.626;18.866;2022-12-19T05:16:06;10.18;;;8.23;;
77204;SDS011;66188;46.626;18.866;2022-12-19T05:18:34;11.60;;;7.95;;
77204;SDS011;66188;46.626;18.866;2022-12-19T05:21:01;11.25;;;7.95;;
77204;SDS011;66188;46.626;18.866;2022-12-19T05:23:27;10.13;;;7.90;;
77204;SDS011;66188;46.626;18.866;2022-12-19T05:25:52;11.80;;;7.95;;
77204;SDS011;66188;46.626;18.866;2022-12-19T05:28:21;11.20;;;8.40;;
77204;SDS011;66188;46.626;18.866;2022-12-19T05:30:46;10.30;;;7.72;;
77204;SDS011;66188;46.626;18.866;2022-12-19T05:33:12;10.18;;;7.30;;
77204;SDS011;66188;46.626;18.866;2022-12-19T05:35:37;10.60;;;8.07;;
77204;SDS011;66188;46.626;18.866;2022-12-19T05:38:03;12.27;;;8.55;;
77204;SDS011;66188;46.626;18.866;2022-12-19T05:40:29;10.45;;;7.47;;
77204;SDS011;66188;46.626;18.866;2022-12-19T05:42:54;10.30;;;7.47;;
77204;SDS011;66188;46.626;18.866;2022-12-19T05:45:20;11.70;;;8.25;;
77204;SDS011;66188;46.626;18.866;2022-12-19T05:47:46;10.82;;;7.97;;
77204;SDS011;66188;46.626;18.866;2022-12-19T05:50:12;11.93;;;8.45;;
77204;SDS011;66188;46.626;18.866;2022-12-19T05:52:38;10.43;;;8.27;;
77204;SDS011;66188;46.626;18.866;2022-12-19T05:55:04;10.13;;;7.40;;
77204;SDS011;66188;46.626;18.866;2022-12-19T05:57:30;11.20;;;7.70;;
77204;SDS011;66188;46.626;18.866;2022-12-19T05:59:56;11.95;;;8.43;;
77204;SDS011;66188;46.626;18.866;2022-12-19T06:02:21;11.18;;;8.32;;
77204;SDS011;66188;46.626;18.866;2022-12-19T06:04:47;11.13;;;7.63;;
77204;SDS011;66188;46.626;18.866;2022-12-19T06:07:12;11.55;;;7.78;;
77204;SDS011;66188;46.626;18.866;2022-12-19T06:09:38;10.00;;;7.40;;
77204;SDS011;66188;46.626;18.866;2022-12-19T06:12:03;11.73;;;7.78;;
77204;SDS011;66188;46.626;18.866;2022-12-19T06:14:29;10.65;;;7.95;;
77204;SDS011;66188;46.626;18.866;2022-12-19T06:16:54;10.30;;;8.13;;
77204;SDS011;66188;46.626;18.866;2022-12-19T06:19:20;11.32;;;7.65;;
77204;SDS011;66188;46.626;18.866;2022-12-19T06:21:46;10.77;;;8.02;;
77204;SDS011;66188;46.626;18.866;2022-12-19T06:24:11;10.18;;;7.93;;
77204;SDS011;66188;46.626;18.866;2022-12-19T06:26:37;10.20;;;7.40;;
77204;SDS011;66188;46.626;18.866;2022-12-19T06:29:02;10.88;;;7.63;;
77204;SDS011;66188;46.626;18.866;2022-12-19T06:31:27;11.35;;;7.85;;
77204;SDS011;66188;46.626;18.866;2022-12-19T06:33:53;11.20;;;7.88;;
77204;SDS011;66188;46.626;18.866;2022-12-19T06:38:45;10.10;;;7.68;;
77204;SDS011;66188;46.626;18.866;2022-12-19T06:41:11;11.10;;;7.07;;
77204;SDS011;66188;46.626;18.866;2022-12-19T06:43:56;9.70;;;6.93;;
77204;SDS011;66188;46.626;18.866;2022-12-19T06:46:23;10.40;;;7.80;;
77204;SDS011;66188;46.626;18.866;2022-12-19T06:48:48;10.18;;;7.72;;
77204;SDS011;66188;46.626;18.866;2022-12-19T06:51:14;10.55;;;7.65;;
77204;SDS011;66188;46.626;18.866;2022-12-19T06:53:39;10.10;;;7.68;;
77204;SDS011;66188;46.626;18.866;2022-12-19T06:56:05;10.80;;;7.40;;
77204;SDS011;66188;46.626;18.866;2022-12-19T06:58:31;10.25;;;7.13;;
77204;SDS011;66188;46.626;18.866;2022-12-19T07:00:57;10.15;;;7.32;;
77204;SDS011;66188;46.626;18.866;2022-12-19T07:03:27;9.45;;;6.90;;
77204;SDS011;66188;46.626;18.866;2022-12-19T07:05:56;10.65;;;7.40;;
77204;SDS011;66188;46.626;18.866;2022-12-19T07:08:21;11.80;;;7.57;;
77204;SDS011;66188;46.626;18.866;2022-12-19T07:10:47;8.52;;;6.68;;
77204;SDS011;66188;46.626;18.866;2022-12-19T07:13:13;10.00;;;7.00;;
77204;SDS011;66188;46.626;18.866;2022-12-19T07:15:38;9.93;;;7.38;;
77204;SDS011;66188;46.626;18.866;2022-12-19T07:18:04;11.02;;;7.40;;
77204;SDS011;66188;46.626;18.866;2022-12-19T07:20:33;9.70;;;7.05;;
77204;SDS011;66188;46.626;18.866;2022-12-19T07:23:01;9.88;;;7.65;;
77204;SDS011;66188;46.626;18.866;2022-12-19T07:25:28;10.25;;;7.13;;
77204;SDS011;66188;46.626;18.866;2022-12-19T07:27:53;8.63;;;6.90;;
77204;SDS011;66188;46.626;18.866;2022-12-19T07:30:19;10.00;;;7.38;;
77204;SDS011;66188;46.626;18.866;2022-12-19T07:32:44;10.10;;;7.35;;
77204;SDS011;66188;46.626;18.866;2022-12-19T07:35:10;10.00;;;7.03;;
77204;SDS011;66188;46.626;18.866;2022-12-19T07:37:35;9.60;;;7.30;;
77204;SDS011;66188;46.626;18.866;2022-12-19T07:40:01;9.38;;;6.80;;
77204;SDS011;66188;46.626;18.866;2022-12-19T07:42:26;9.15;;;6.85;;
77204;SDS011;66188;46.626;18.866;2022-12-19T07:44:52;11.10;;;7.38;;
77204;SDS011;66188;46.626;18.866;2022-12-19T07:47:17;10.05;;;6.90;;
77204;SDS011;66188;46.626;18.866;2022-12-19T07:49:43;10.13;;;6.85;;
77204;SDS011;66188;46.626;18.866;2022-12-19T07:52:08;11.43;;;7.80;;
77204;SDS011;66188;46.626;18.866;2022-12-19T07:54:34;10.23;;;6.97;;
77204;SDS011;66188;46.626;18.866;2022-12-19T07:57:00;8.98;;;7.20;;
77204;SDS011;66188;46.626;18.866;2022-12-19T07:59:25;9.70;;;7.00;;
77204;SDS011;66188;46.626;18.866;2022-12-19T08:01:51;9.95;;;7.20;;
77204;SDS011;66188;46.626;18.866;2022-12-19T08:04:16;10.48;;;7.22;;
77204;SDS011;66188;46.626;18.866;2022-12-19T08:06:42;11.02;;;7.70;;
77204;SDS011;66188;46.626;18.866;2022-12-19T08:09:07;10.05;;;7.00;;
77204;SDS011;66188;46.626;18.866;2022-12-19T08:11:33;10.82;;;7.78;;
77204;SDS011;66188;46.626;18.866;2022-12-19T08:13:58;22.23;;;7.75;;
77204;SDS011;66188;46.626;18.866;2022-12-19T08:16:24;10.38;;;7.57;;
77204;SDS011;66188;46.626;18.866;2022-12-19T08:18:51;9.90;;;7.43;;
77204;SDS011;66188;46.626;18.866;2022-12-19T08:21:17;9.55;;;7.38;;
77204;SDS011;66188;46.626;18.866;2022-12-19T08:23:43;12.00;;;7.40;;
77204;SDS011;66188;46.626;18.866;2022-12-19T08:26:11;12.52;;;7.65;;
77204;SDS011;66188;46.626;18.866;2022-12-19T08:28:41;10.35;;;7.45;;
77204;SDS011;66188;46.626;18.866;2022-12-19T08:31:08;9.70;;;7.70;;
77204;SDS011;66188;46.626;18.866;2022-12-19T08:33:38;10.57;;;7.63;;
77204;SDS011;66188;46.626;18.866;2022-12-19T08:36:05;10.93;;;7.05;;
77204;SDS011;66188;46.626;18.866;2022-12-19T08:38:32;12.38;;;8.00;;
77204;SDS011;66188;46.626;18.866;2022-12-19T08:40:58;12.18;;;8.18;;
77204;SDS011;66188;46.626;18.866;2022-12-19T08:43:24;9.35;;;6.90;;
77204;SDS011;66188;46.626;18.866;2022-12-19T08:45:50;11.55;;;8.30;;
77204;SDS011;66188;46.626;18.866;2022-12-19T08:48:16;11.30;;;7.88;;
77204;SDS011;66188;46.626;18.866;2022-12-19T08:51:01;12.00;;;8.80;;
77204;SDS011;66188;46.626;18.866;2022-12-19T08:53:31;12.30;;;7.80;;
77204;SDS011;66188;46.626;18.866;2022-12-19T08:56:00;12.55;;;7.95;;
77204;SDS011;66188;46.626;18.866;2022-12-19T08:58:27;11.10;;;7.90;;
77204;SDS011;66188;46.626;18.866;2022-12-19T09:00:57;11.85;;;7.90;;
77204;SDS011;66188;46.626;18.866;2022-12-19T09:03:23;12.60;;;7.68;;
77204;SDS011;66188;46.626;18.866;2022-12-19T09:05:58;12.40;;;8.27;;
77204;SDS011;66188;46.626;18.866;2022-12-19T09:08:25;11.40;;;7.90;;
77204;SDS011;66188;46.626;18.866;2022-12-19T09:10:59;11.90;;;7.90;;
77204;SDS011;66188;46.626;18.866;2022-12-19T09:13:27;11.57;;;7.97;;
77204;SDS011;66188;46.626;18.866;2022-12-19T09:16:00;13.00;;;8.85;;
77204;SDS011;66188;46.626;18.866;2022-12-19T09:18:28;11.48;;;8.00;;
77204;SDS011;66188;46.626;18.866;2022-12-19T09:20:55;13.07;;;8.85;;
77204;SDS011;66188;46.626;18.866;2022-12-19T09:23:21;12.05;;;8.60;;
77204;SDS011;66188;46.626;18.866;2022-12-19T09:25:48;12.10;;;8.00;;
77204;SDS011;66188;46.626;18.866;2022-12-19T09:28:13;11.85;;;8.25;;
77204;SDS011;66188;46.626;18.866;2022-12-19T09:30:39;13.68;;;8.68;;
77204;SDS011;66188;46.626;18.866;2022-12-19T09:33:05;13.23;;;8.60;;
77204;SDS011;66188;46.626;18.866;2022-12-19T09:35:30;12.63;;;8.32;;
77204;SDS011;66188;46.626;18.866;2022-12-19T09:37:56;11.88;;;8.48;;
77204;SDS011;66188;46.626;18.866;2022-12-19T09:40:21;14.30;;;8.85;;
77204;SDS011;66188;46.626;18.866;2022-12-19T09:47:54;12.68;;;8.75;;
77204;SDS011;66188;46.626;18.866;2022-12-19T09:50:28;13.90;;;8.38;;
77204;SDS011;66188;46.626;18.866;2022-12-19T09:53:09;13.30;;;9.00;;
77204;SDS011;66188;46.626;18.866;2022-12-19T09:55:43;12.98;;;8.65;;
77204;SDS011;66188;46.626;18.866;2022-12-19T10:00:57;13.70;;;8.45;;
77204;SDS011;66188;46.626;18.866;2022-12-19T10:16:27;14.48;;;9.10;;
77204;SDS011;66188;46.626;18.866;2022-12-19T10:24:27;14.05;;;8.68;;
77204;SDS011;66188;46.626;18.866;2022-12-19T10:26:59;12.88;;;8.55;;
77204;SDS011;66188;46.626;18.866;2022-12-19T10:32:01;14.35;;;9.00;;
77204;SDS011;66188;46.626;18.866;2022-12-19T10:34:33;17.17;;;9.63;;
77204;SDS011;66188;46.626;18.866;2022-12-19T10:37:13;15.60;;;9.10;;
77204;SDS011;66188;46.626;18.866;2022-12-19T10:42:11;14.23;;;10.30;;
77204;SDS011;66188;46.626;18.866;2022-12-19T10:44:44;18.40;;;9.10;;
77204;SDS011;66188;46.626;18.866;2022-12-19T10:47:15;14.45;;;9.20;;
77204;SDS011;66188;46.626;18.866;2022-12-19T10:52:07;12.30;;;8.98;;
77204;SDS011;66188;46.626;18.866;2022-12-19T11:02:47;15.05;;;9.48;;
77204;SDS011;66188;46.626;18.866;2022-12-19T11:05:28;14.05;;;9.48;;
77204;SDS011;66188;46.626;18.866;2022-12-19T11:10:46;13.18;;;8.82;;
77204;SDS011;66188;46.626;18.866;2022-12-19T11:15:54;12.68;;;9.20;;
77204;SDS011;66188;46.626;18.866;2022-12-19T11:18:22;14.45;;;8.98;;
77204;SDS011;66188;46.626;18.866;2022-12-19T11:20:56;14.80;;;9.73;;
77204;SDS011;66188;46.626;18.866;2022-12-19T11:23:24;14.90;;;9.65;;
77204;SDS011;66188;46.626;18.866;2022-12-19T11:25:56;15.38;;;9.30;;
77204;SDS011;66188;46.626;18.866;2022-12-19T11:33:27;13.65;;;9.15;;
77204;SDS011;66188;46.626;18.866;2022-12-19T11:35:54;15.38;;;9.27;;
77204;SDS011;66188;46.626;18.866;2022-12-19T11:41:14;16.88;;;10.15;;
77204;SDS011;66188;46.626;18.866;2022-12-19T11:51:39;12.45;;;8.68;;
77204;SDS011;66188;46.626;18.866;2022-12-19T11:54:20;13.63;;;9.50;;
77204;SDS011;66188;46.626;18.866;2022-12-19T11:56:48;13.52;;;9.30;;
77204;SDS011;66188;46.626;18.866;2022-12-19T12:01:46;14.00;;;9.93;;
77204;SDS011;66188;46.626;18.866;2022-12-19T12:07:01;13.48;;;8.85;;
77204;SDS011;66188;46.626;18.866;2022-12-19T12:09:32;13.63;;;8.65;;
77204;SDS011;66188;46.626;18.866;2022-12-19T12:12:18;14.90;;;9.18;;
77204;SDS011;66188;46.626;18.866;2022-12-19T12:28:24;15.45;;;9.18;;
77204;SDS011;66188;46.626;18.866;2022-12-19T12:45:23;13.95;;;8.95;;
77204;SDS011;66188;46.626;18.866;2022-12-19T12:47:51;16.50;;;9.43;;
77204;SDS011;66188;46.626;18.866;2022-12-19T12:50:18;15.07;;;9.45;;
77204;SDS011;66188;46.626;18.866;2022-12-19T12:52:48;13.10;;;8.27;;
77204;SDS011;66188;46.626;18.866;2022-12-19T12:55:25;14.70;;;9.07;;
77204;SDS011;66188;46.626;18.866;2022-12-19T12:57:54;13.43;;;8.85;;
77204;SDS011;66188;46.626;18.866;2022-12-19T13:03:30;13.27;;;8.77;;
77204;SDS011;66188;46.626;18.866;2022-12-19T13:11:05;12.35;;;8.63;;
77204;SDS011;66188;46.626;18.866;2022-12-19T13:13:56;14.23;;;9.48;;
77204;SDS011;66188;46.626;18.866;2022-12-19T13:19:16;15.13;;;9.43;;
77204;SDS011;66188;46.626;18.866;2022-12-19T13:32:24;14.65;;;9.15;;
77204;SDS011;66188;46.626;18.866;2022-12-19T13:34:52;15.05;;;9.18;;
77204;SDS011;66188;46.626;18.866;2022-12-19T13:37:25;14.27;;;8.73;;
77204;SDS011;66188;46.626;18.866;2022-12-19T13:42:20;12.45;;;8.18;;
77204;SDS011;66188;46.626;18.866;2022-12-19T13:45:21;13.32;;;9.13;;
77204;SDS011;66188;46.626;18.866;2022-12-19T13:47:50;15.25;;;8.80;;
77204;SDS011;66188;46.626;18.866;2022-12-19T13:50:38;13.63;;;8.20;;
77204;SDS011;66188;46.626;18.866;2022-12-19T13:53:12;15.45;;;8.70;;
77204;SDS011;66188;46.626;18.866;2022-12-19T13:55:40;13.45;;;9.23;;
77204;SDS011;66188;46.626;18.866;2022-12-19T13:58:05;12.07;;;8.45;;
77204;SDS011;66188;46.626;18.866;2022-12-19T14:00:38;13.38;;;8.65;;
77204;SDS011;66188;46.626;18.866;2022-12-19T14:03:10;14.32;;;9.13;;
77204;SDS011;66188;46.626;18.866;2022-12-19T14:05:40;12.25;;;8.10;;
77204;SDS011;66188;46.626;18.866;2022-12-19T14:08:06;14.05;;;8.88;;
77204;SDS011;66188;46.626;18.866;2022-12-19T14:10:33;13.15;;;9.00;;
77204;SDS011;66188;46.626;18.866;2022-12-19T14:13:04;13.32;;;8.98;;
77204;SDS011;66188;46.626;18.866;2022-12-19T14:15:50;12.98;;;8.27;;
77204;SDS011;66188;46.626;18.866;2022-12-19T14:18:23;14.70;;;9.25;;
77204;SDS011;66188;46.626;18.866;2022-12-19T14:23:36;13.23;;;9.05;;
77204;SDS011;66188;46.626;18.866;2022-12-19T14:26:02;12.05;;;8.18;;
77204;SDS011;66188;46.626;18.866;2022-12-19T14:28:36;11.95;;;8.80;;
77204;SDS011;66188;46.626;18.866;2022-12-19T14:31:18;13.45;;;8.73;;
77204;SDS011;66188;46.626;18.866;2022-12-19T14:33:46;12.35;;;8.20;;
77204;SDS011;66188;46.626;18.866;2022-12-19T14:36:35;12.18;;;8.02;;
77204;SDS011;66188;46.626;18.866;2022-12-19T14:39:02;13.07;;;8.50;;
77204;SDS011;66188;46.626;18.866;2022-12-19T14:44:15;12.63;;;8.77;;
77204;SDS011;66188;46.626;18.866;2022-12-19T14:46:42;13.07;;;8.98;;
77204;SDS011;66188;46.626;18.866;2022-12-19T14:49:22;13.40;;;9.13;;
77204;SDS011;66188;46.626;18.866;2022-12-19T14:51:49;13.38;;;8.60;;
77204;SDS011;66188;46.626;18.866;2022-12-19T14:54:16;13.82;;;8.88;;
77204;SDS011;66188;46.626;18.866;2022-12-19T15:02:37;15.35;;;8.27;;
77204;SDS011;66188;46.626;18.866;2022-12-19T15:07:32;11.68;;;8.32;;
77204;SDS011;66188;46.626;18.866;2022-12-19T15:12:33;14.35;;;9.02;;
77204;SDS011;66188;46.626;18.866;2022-12-19T15:15:39;11.85;;;7.78;;
77204;SDS011;66188;46.626;18.866;2022-12-19T15:21:03;13.48;;;8.52;;
77204;SDS011;66188;46.626;18.866;2022-12-19T15:23:34;12.35;;;7.93;;
77204;SDS011;66188;46.626;18.866;2022-12-19T15:26:00;11.40;;;8.02;;
77204;SDS011;66188;46.626;18.866;2022-12-19T15:28:37;14.55;;;8.88;;
77204;SDS011;66188;46.626;18.866;2022-12-19T15:31:11;12.90;;;8.95;;
77204;SDS011;66188;46.626;18.866;2022-12-19T15:33:40;12.73;;;8.07;;
77204;SDS011;66188;46.626;18.866;2022-12-19T15:36:07;13.85;;;8.75;;
77204;SDS011;66188;46.626;18.866;2022-12-19T15:38:33;14.98;;;8.70;;
77204;SDS011;66188;46.626;18.866;2022-12-19T15:40:59;12.45;;;8.25;;
77204;SDS011;66188;46.626;18.866;2022-12-19T15:43:25;11.23;;;7.47;;
77204;SDS011;66188;46.626;18.866;2022-12-19T15:45:51;12.63;;;8.48;;
77204;SDS011;66188;46.626;18.866;2022-12-19T15:48:22;14.02;;;8.10;;
77204;SDS011;66188;46.626;18.866;2022-12-19T15:50:49;12.20;;;8.25;;
77204;SDS011;66188;46.626;18.866;2022-12-19T15:53:18;12.38;;;8.38;;
77204;SDS011;66188;46.626;18.866;2022-12-19T15:55:46;11.73;;;8.45;;
77204;SDS011;66188;46.626;18.866;2022-12-19T15:58:13;15.50;;;8.38;;
77204;SDS011;66188;46.626;18.866;2022-12-19T16:00:39;13.95;;;8.52;;
77204;SDS011;66188;46.626;18.866;2022-12-19T16:03:12;13.13;;;8.25;;
77204;SDS011;66188;46.626;18.866;2022-12-19T16:05:38;12.40;;;8.30;;
77204;SDS011;66188;46.626;18.866;2022-12-19T16:08:37;13.60;;;8.68;;
77204;SDS011;66188;46.626;18.866;2022-12-19T16:10:55;12.07;;;8.02;;
77204;SDS011;66188;46.626;18.866;2022-12-19T16:13:24;13.90;;;8.20;;
77204;SDS011;66188;46.626;18.866;2022-12-19T16:15:53;11.70;;;8.23;;
77204;SDS011;66188;46.626;18.866;2022-12-19T16:18:19;14.48;;;8.85;;
77204;SDS011;66188;46.626;18.866;2022-12-19T16:20:45;12.05;;;7.75;;
77204;SDS011;66188;46.626;18.866;2022-12-19T16:23:11;12.27;;;8.40;;
77204;SDS011;66188;46.626;18.866;2022-12-19T16:28:05;11.88;;;8.20;;
77204;SDS011;66188;46.626;18.866;2022-12-19T16:30:38;13.05;;;8.15;;
77204;SDS011;66188;46.626;18.866;2022-12-19T16:33:11;15.85;;;8.38;;
77204;SDS011;66188;46.626;18.866;2022-12-19T16:35:43;14.32;;;8.30;;
77204;SDS011;66188;46.626;18.866;2022-12-19T16:38:09;12.15;;;8.50;;
77204;SDS011;66188;46.626;18.866;2022-12-19T16:40:34;11.98;;;8.43;;
77204;SDS011;66188;46.626;18.866;2022-12-19T16:43:04;14.43;;;8.50;;
77204;SDS011;66188;46.626;18.866;2022-12-19T16:45:36;15.27;;;8.48;;
77204;SDS011;66188;46.626;18.866;2022-12-19T16:48:02;15.95;;;9.02;;
77204;SDS011;66188;46.626;18.866;2022-12-19T16:50:34;15.82;;;9.48;;
77204;SDS011;66188;46.626;18.866;2022-12-19T16:53:00;12.88;;;9.10;;
77204;SDS011;66188;46.626;18.866;2022-12-19T16:55:25;16.05;;;9.65;;
77204;SDS011;66188;46.626;18.866;2022-12-19T16:57:52;11.68;;;7.80;;
77204;SDS011;66188;46.626;18.866;2022-12-19T17:00:20;11.45;;;8.45;;
77204;SDS011;66188;46.626;18.866;2022-12-19T17:02:48;14.10;;;8.88;;
77204;SDS011;66188;46.626;18.866;2022-12-19T17:05:17;12.80;;;8.27;;
77204;SDS011;66188;46.626;18.866;2022-12-19T17:07:45;13.38;;;8.60;;
77204;SDS011;66188;46.626;18.866;2022-12-19T17:10:11;14.85;;;9.20;;
77204;SDS011;66188;46.626;18.866;2022-12-19T17:12:37;14.43;;;8.50;;
77204;SDS011;66188;46.626;18.866;2022-12-19T17:15:04;13.55;;;8.90;;
77204;SDS011;66188;46.626;18.866;2022-12-19T17:17:37;13.63;;;9.25;;
77204;SDS011;66188;46.626;18.866;2022-12-19T17:20:03;13.60;;;8.70;;
77204;SDS011;66188;46.626;18.866;2022-12-19T17:22:30;13.07;;;8.32;;
77204;SDS011;66188;46.626;18.866;2022-12-19T17:24:55;13.80;;;8.93;;
77204;SDS011;66188;46.626;18.866;2022-12-19T17:27:21;14.18;;;8.70;;
77204;SDS011;66188;46.626;18.866;2022-12-19T17:29:47;15.27;;;8.93;;
77204;SDS011;66188;46.626;18.866;2022-12-19T17:32:15;12.90;;;8.75;;
77204;SDS011;66188;46.626;18.866;2022-12-19T17:34:41;12.60;;;8.77;;